Latest Weather Observations for Merriwa

IDN60801

Issued at 2:32 pm EDT Sunday 22 January 2017 (issued every 30 minutes, with the page automatically refreshed every 10 minutes)

About weather observations | Map of weather stations | Latest weather observations for NSW | Other Formats
Station Details ID: 061287 Name: MERRIWA (ROSCOMMON) Lat: -32.19 Lon: 150.17 Height: 375.0 m
Data from the previous 72 hours. | See also: Recent months at Merriwa
Date/Time
EDT
Temp
°C
App
Temp
°C
Dew
Point
°C
Rel
Hum
%
Delta-T
°C
Wind Press
QNH
hPa
Press
MSL
hPa
Rain since
9am
mm
Dir  Spd
km/h
Gust
km/h
Spd
kts
Gust
kts
22/02:30pm 30.1 28.3 13.4 36 10.1 ESE 15 20 8 11 1015.4 1013.5 0.0
22/02:00pm 29.4 28.1 13.6 38 9.6 E 13 24 7 13 1015.9 1014.0 0.0
22/01:30pm 28.1 25.4 12.8 38 9.1 SE 19 30 10 16 1016.2 1014.3 0.0
22/01:00pm 27.9 26.3 13.8 42 8.5 ENE 15 26 8 14 1016.5 1014.6 0.0
22/12:30pm 26.9 25.2 13.6 44 8.0 ESE 15 22 8 12 1016.9 1015.1 0.0
22/12:00pm 25.7 23.3 13.9 48 7.1 ESE 19 32 10 17 1017.4 1015.5 0.0
22/11:30am 24.9 23.8 15.2 54 5.9 ESE 15 26 8 14 1017.7 1015.8 0.0
22/11:00am 24.1 22.0 14.8 56 5.6 ESE 19 30 10 16 1017.9 1016.0 0.0
22/10:30am 23.2 21.1 14.7 58 5.1 E 19 30 10 16 1018.2 1016.3 0.0
22/10:00am 21.7 19.2 14.1 62 4.5 E 20 30 11 16 1018.5 1016.6 0.0
22/09:30am 21.6 19.0 15.0 66 4.0 ESE 22 30 12 16 1018.5 1016.6 0.0
22/09:00am 20.7 18.7 15.0 70 3.4 E 19 28 10 15 1018.5 1016.6 0.0
22/08:30am 19.9 18.0 15.3 75 2.8 ESE 19 28 10 15 1018.4 1016.5 0.0
22/08:00am 18.5 16.5 15.0 80 2.1 ESE 19 26 10 14 1018.2 1016.3 0.0
22/07:30am 17.8 17.5 15.4 86 1.4 E 11 17 6 9 1018.0 1016.1 0.0
22/07:00am 16.0 15.7 15.4 96 0.4 E 11 13 6 7 1017.6 1015.7 0.0
22/06:30am 13.9 12.9 13.4 97 0.3 ESE 11 11 6 6 1017.3 1015.4 0.0
22/06:00am 14.4 13.4 13.4 94 0.6 ESE 11 13 6 7 1016.9 1015.1 0.0
22/05:30am 15.2 13.6 13.9 92 0.7 SE 15 19 8 10 1016.7 1014.8 0.0
22/05:00am 15.2 13.7 14.1 93 0.6 SE 15 19 8 10 1016.3 1014.4 0.0
22/04:30am 15.4 14.2 14.1 92 0.7 SE 13 15 7 8 1016.1 1014.2 0.0
22/04:00am 15.6 14.4 14.0 90 0.9 SE 13 17 7 9 1016.1 1014.2 0.0
22/03:30am 15.6 14.3 13.8 89 1.0 SE 13 15 7 8 1016.2 1014.3 0.0
22/03:00am 16.3 14.7 14.0 86 1.3 SE 15 20 8 11 1016.3 1014.4 0.0
22/02:30am 16.7 15.1 14.0 84 1.6 SE 15 20 8 11 1016.4 1014.5 0.0
22/02:00am 16.9 14.9 14.0 83 1.7 SE 17 20 9 11 1016.6 1014.7 0.0
22/01:30am 17.5 15.2 14.2 81 1.9 SE 19 30 10 16 1016.7 1014.8 0.0
22/01:00am 17.6 15.2 14.3 81 1.9 ESE 20 28 11 15 1016.8 1015.0 0.0
22/12:30am 17.8 14.2 14.3 80 2.0 ESE 26 39 14 21 1016.8 1015.0 0.0
22/12:00am 18.3 14.0 14.4 78 2.3 ESE 30 43 16 23 1016.6 1014.7 0.0
 
Date/Time
EDT
Temp
°C
App
Temp
°C
Dew
Point
°C
Rel
Hum
%
Delta-T
°C
Wind Press
QNH
hPa
Press
MSL
hPa
Rain since
9am
mm
Dir  Spd
km/h
Gust
km/h
Spd
kts
Gust
kts
21/11:50pm 18.2 13.9 14.5 79 2.2 ESE 30 48 16 26 1016.6 1014.7 0.0
21/11:30pm 18.5 13.8 14.4 77 2.4 ESE 32 46 17 25 1016.4 1014.5 0.0
21/11:14pm 18.6 14.3 14.3 76 2.5 ESE 30 50 16 27 1016.2 1014.3 0.0
21/11:00pm 18.6 13.8 13.9 74 2.7 ESE 32 46 17 25 1016.1 1014.2 0.0
21/10:30pm 19.2 14.3 13.8 71 3.1 ESE 32 44 17 24 1015.8 1013.9 0.0
21/10:16pm 19.4 14.9 13.8 70 3.3 ESE 30 48 16 26 1015.7 1013.8 0.0
21/10:00pm 19.7 15.9 13.6 68 3.5 ESE 26 39 14 21 1015.4 1013.5 0.0
21/09:30pm 20.9 16.7 13.4 62 4.4 ESE 28 37 15 20 1014.7 1012.8 0.0
21/09:00pm 21.6 17.2 13.0 58 5.0 E 28 43 15 23 1014.0 1012.1 0.0
21/08:30pm 22.3 19.1 13.1 56 5.4 E 22 33 12 18 1013.5 1011.6 0.0
21/08:00pm 23.1 19.2 13.3 54 5.8 E 26 35 14 19 1013.0 1011.1 0.0
21/07:30pm 24.6 21.1 13.5 50 6.6 E 24 39 13 21 1012.5 1010.6 0.0
21/07:00pm 25.9 22.4 13.4 46 7.5 ESE 24 35 13 19 1012.1 1010.2 0.0
21/06:30pm 26.9 23.5 13.6 44 8.0 ESE 24 32 13 17 1011.8 1009.8 0.0
21/06:00pm 27.9 24.7 14.2 43 8.3 ESE 24 33 13 18 1011.2 1009.3 0.0
21/05:30pm 28.2 25.3 14.1 42 8.6 ESE 22 30 12 16 1011.0 1009.1 0.0
21/05:00pm 28.4 26.0 14.3 42 8.6 ESE 20 33 11 18 1011.0 1009.1 0.0
21/04:30pm 28.2 26.1 13.7 41 8.8 ESE 17 32 9 17 1011.1 1009.2 0.0
21/04:00pm 28.5 26.4 15.1 44 8.3 ESE 20 32 11 17 1011.3 1009.4 0.0
21/03:30pm 28.5 26.5 15.4 45 8.1 SE 20 32 11 17 1011.2 1009.3 0.0
21/03:00pm 28.0 25.6 14.3 43 8.4 ESE 20 30 11 16 1011.3 1009.4 0.0
21/02:30pm 27.2 25.7 14.2 44 7.9 ESE 15 30 8 16 1011.3 1009.4 0.0
21/02:00pm 26.7 25.2 14.1 46 7.6 ESE 15 24 8 13 1011.2 1009.3 0.0
21/01:30pm 26.4 24.6 15.4 50 6.8 E 19 32 10 17 1011.3 1009.4 0.0
21/01:00pm 25.6 23.9 14.7 51 6.6 SE 17 30 9 16 1011.3 1009.4 0.0
21/12:30pm 24.6 23.3 14.7 54 6.0 ESE 15 24 8 13 1011.4 1009.5 0.0
21/12:00pm 25.3 24.4 15.9 56 5.8 E 15 28 8 15 1011.7 1009.7 0.0
21/11:30am 23.8 22.1 15.8 61 4.9 ESE 19 28 10 15 1011.7 1009.7 0.0
21/11:00am 24.4 23.5 16.9 63 4.7 ESE 17 26 9 14 1011.4 1009.5 0.0
21/10:30am 22.6 21.3 15.7 65 4.2 ESE 17 26 9 14 1011.4 1009.5 0.0
21/10:00am 22.4 20.8 16.0 67 3.9 ESE 19 26 10 14 1011.2 1009.3 0.0
21/09:30am 21.5 19.9 16.0 71 3.4 E 19 28 10 15 1010.9 1009.0 0.0
21/09:00am 20.8 19.6 16.0 74 2.9 ESE 17 24 9 13 1010.6 1008.7 26.4
21/08:30am 19.8 18.3 16.4 81 2.1 E 19 24 10 13 1010.3 1008.4 26.4
21/08:00am 19.2 18.4 16.2 83 1.8 E 15 20 8 11 1009.9 1008.0 26.4
21/07:30am 19.3 19.3 17.1 87 1.4 E 13 20 7 11 1009.8 1007.9 26.4
21/07:00am 18.9 19.7 18.2 96 0.4 E 11 17 6 9 1009.3 1007.3 26.4
21/06:50am 18.8 20.1 18.5 98 0.2 E 9 13 5 7 1009.1 1007.1 26.4
21/06:30am 18.8 19.7 18.5 98 0.2 E 11 17 6 9 1008.7 1006.8 26.4
21/06:07am 18.5 19.7 18.3 99 0.1 ESE 9 11 5 6 1008.3 1006.4 26.4
21/06:00am 18.4 19.2 18.2 99 0.1 ESE 11 17 6 9 1008.2 1006.3 26.4
21/05:30am 17.8 19.1 17.5 98 0.2 WNW 7 9 4 5 1007.5 1005.6 26.4
21/05:00am 18.0 19.4 17.7 98 0.2 WNW 7 9 4 5 1007.1 1005.1 26.2
21/04:30am 18.7 20.0 18.4 98 0.2 WNW 9 9 5 5 1006.8 1004.8 26.2
21/04:00am 18.6 20.2 18.3 98 0.2 WNW 7 11 4 6 1006.5 1004.5 26.2
21/03:30am 19.0 20.8 18.7 98 0.2 W 7 9 4 5 1006.4 1004.4 26.2
21/03:00am 18.8 19.9 18.0 95 0.5 WNW 9 11 5 6 1006.4 1004.4 26.2
21/02:30am 19.7 20.9 18.2 91 0.9 WNW 9 13 5 7 1006.4 1004.4 26.2
21/02:00am 19.8 21.2 17.8 88 1.3 WNW 7 9 4 5 1006.1 1004.1 26.2
21/01:30am 20.8 21.1 18.0 84 1.8 W 13 20 7 11 1005.8 1003.9 26.2
21/01:00am 21.7 22.6 18.3 81 2.2 W 11 17 6 9 1005.7 1003.8 26.2
21/12:30am 22.3 23.2 19.3 83 1.9 W 13 20 7 11 1005.2 1003.3 26.2
21/12:00am 23.1 23.1 19.7 81 2.2 WSW 19 28 10 15 1004.6 1002.6 26.2
 
Date/Time
EDT
Temp
°C
App
Temp
°C
Dew
Point
°C
Rel
Hum
%
Delta-T
°C
Wind Press
QNH
hPa
Press
MSL
hPa
Rain since
9am
mm
Dir  Spd
km/h
Gust
km/h
Spd
kts
Gust
kts
20/11:30pm 23.8 24.4 20.3 81 2.3 W 17 28 9 15 1003.9 1001.9 26.2
20/11:00pm 24.5 25.2 21.2 82 2.2 W 19 30 10 16 1003.4 1001.4 26.2
20/10:30pm 24.8 26.1 21.7 83 2.1 W 17 24 9 13 1002.4 1000.4 26.2
20/10:00pm 25.6 26.6 22.1 81 2.4 W 20 33 11 18 1002.1 1000.1 26.2
20/09:30pm 25.1 27.8 22.2 84 2.0 W 11 20 6 11 1001.7 999.7 26.2
20/09:00pm 27.4 25.1 21.2 69 4.2 W 35 54 19 29 1001.3 999.3 26.2
20/08:49pm 28.1 26.9 20.9 65 4.8 W 28 54 15 29 1001.1 999.1 26.2
20/08:30pm 27.5 26.7 20.8 67 4.5 WNW 26 44 14 24 1000.1 998.1 26.2
20/08:13pm 29.0 26.3 20.4 59 5.8 WNW 35 57 19 31 999.7 997.7 26.2
20/08:00pm 29.0 27.1 20.2 59 5.9 NW 30 43 16 23 999.4 997.4 26.2
20/07:30pm 29.0 27.9 21.0 62 5.4 NW 28 39 15 21 999.0 997.0 26.2
20/07:00pm 29.1 28.1 21.3 62 5.3 WNW 28 43 15 23 999.1 997.1 26.2
20/06:30pm 28.9 28.4 21.4 64 5.1 WNW 26 35 14 19 998.8 996.8 26.2
20/06:02pm 29.4 27.4 21.1 61 5.6 WNW 33 52 18 28 998.7 996.7 26.2
20/06:00pm 29.4 27.0 21.1 61 5.6 WNW 35 52 19 28 998.8 996.8 26.2
20/05:48pm 29.6 27.6 20.7 58 6.0 WNW 32 54 17 29 998.9 996.9 26.2
20/05:30pm 30.0 29.1 21.4 60 5.8 W 28 41 15 22 999.0 997.0 26.2
20/05:12pm 30.3 29.5 21.7 60 5.9 WNW 28 46 15 25 999.0 997.0 26.2
20/05:00pm 30.3 29.4 22.2 62 5.6 WNW 30 44 16 24 999.1 997.1 26.2
20/04:39pm 29.5 28.0 21.7 63 5.3 WNW 32 50 17 27 999.3 997.3 26.2
20/04:30pm 29.5 27.6 21.4 61 5.5 WNW 33 44 18 24 999.2 997.2 26.2
20/04:03pm 30.0 28.4 21.9 62 5.5 WNW 33 52 18 28 998.9 996.9 26.2
20/04:00pm 30.2 27.8 21.8 60 5.8 WNW 37 52 20 28 998.9 996.9 26.2
20/03:30pm 28.8 26.0 21.8 66 4.8 WNW 39 52 21 28 999.5 997.5 26.2
20/03:00pm 28.9 27.5 22.9 70 4.2 WNW 35 56 19 30 999.5 997.5 26.2
20/02:44pm 28.3 27.7 23.7 76 3.2 WNW 33 63 18 34 999.7 997.7 26.2
20/02:30pm 26.9 29.5 26.6 98 0.2 WNW 26 37 14 20 1000.6 998.6 26.2
20/02:06pm 24.2 22.0 22.8 92 1.0 NW 39 67 21 36 1001.0 999.0 24.6
20/02:00pm 27.6 27.2 23.0 76 3.2 WNW 30 48 16 26 1000.8 998.8 22.2
20/01:58pm 27.7 27.3 23.1 76 3.2 NW 30 48 16 26 1000.6 998.6 22.2
20/01:30pm 26.5 28.3 24.9 91 1.1 NW 24 32 13 17 1001.4 999.4 22.2
20/01:00pm 24.3 26.6 24.1 99 0.1 NW 19 26 10 14 1002.0 1000.0 22.2
20/12:55pm 23.9 25.8 23.7 99 0.1 NW 20 28 11 15 1002.2 1000.2 22.2
20/12:32pm 23.1 23.0 22.9 99 0.1 WNW 28 52 15 28 1002.8 1000.9 21.8
20/12:30pm 23.1 23.7 22.8 98 0.2 W 24 43 13 23 1003.1 1001.2 20.0
20/12:28pm 22.8 23.6 22.5 98 0.2 W 22 33 12 18 1003.1 1001.2 17.4
20/12:00pm 27.2 27.6 21.7 72 3.7 NNW 22 35 12 19 1001.7 999.7 2.0
20/11:30am 23.6 27.9 23.3 98 0.2 SSW 6 9 3 5 1002.1 1000.1 2.0
20/11:00am 21.7 24.6 21.0 96 0.5 SSW 7 11 4 6 1002.6 1000.7 2.0
20/10:30am 21.7 25.4 20.7 94 0.7 SSW 2 9 1 5 1003.1 1001.2 2.0
20/10:00am 19.6 21.2 19.1 97 0.3 SW 9 17 5 9 1003.6 1001.6 1.8
20/09:30am 21.3 24.8 19.6 90 1.1 CALM 0 0 0 0 1003.7 1001.7 0.4
20/09:00am 20.6 22.6 17.8 84 1.8 E 4 11 2 6 1004.6 1002.6 0.0
20/08:30am 19.6 20.6 16.4 82 2.0 SE 6 7 3 4 1005.1 1003.2 0.0
20/08:00am 18.8 19.6 16.4 86 1.5 SE 7 9 4 5 1005.6 1003.7 0.0
20/07:30am 18.2 18.7 16.5 90 1.0 SE 9 13 5 7 1005.5 1003.6 0.0
20/07:00am 17.7 18.7 16.4 92 0.8 SE 6 9 3 5 1005.7 1003.8 0.0
20/06:30am 17.4 19.3 16.6 95 0.5 SE 2 7 1 4 1005.8 1003.9 0.0
20/06:00am 17.1 19.3 16.5 96 0.4 CALM 0 0 0 0 1005.8 1003.9 0.0
20/05:30am 17.0 17.3 16.0 94 0.6 SE 9 13 5 7 1005.8 1003.9 0.0
20/05:00am 17.1 17.4 16.0 93 0.7 ESE 9 13 5 7 1005.7 1003.8 0.0
20/04:43am 17.2 17.1 15.9 92 0.8 ESE 11 15 6 8 1005.8 1003.9 0.0
20/04:30am 17.3 17.8 15.6 90 1.0 ESE 7 11 4 6 1006.3 1004.3 0.0
20/04:00am 18.0 18.2 15.8 87 1.3 E 9 15 5 8 1006.5 1004.5 0.0
20/03:30am 18.5 18.8 16.1 86 1.5 ESE 9 15 5 8 1007.5 1005.6 0.0
20/03:00am 18.6 17.8 16.0 85 1.6 E 15 20 8 11 1007.6 1005.7 0.0
20/02:30am 18.7 17.8 15.8 83 1.7 E 15 20 8 11 1008.2 1006.3 0.0
20/02:08am 18.8 17.5 15.9 83 1.7 ESE 17 24 9 13 1008.6 1006.7 0.0
20/02:00am 18.8 17.2 15.9 83 1.8 E 19 24 10 13 1008.6 1006.7 0.0
20/01:30am 19.0 18.5 15.9 82 1.9 ENE 13 20 7 11 1009.4 1007.4 0.0
20/01:00am 19.2 18.7 15.9 81 2.0 E 13 19 7 10 1009.7 1007.8 0.0
20/12:30am 19.3 18.5 16.0 81 2.0 ESE 15 20 8 11 1010.0 1008.1 0.0
20/12:00am 19.4 18.2 16.1 81 2.0 ESE 17 24 9 13 1010.1 1008.2 0.0
 
Date/Time
EDT
Temp
°C
App
Temp
°C
Dew
Point
°C
Rel
Hum
%
Delta-T
°C
Wind Press
QNH
hPa
Press
MSL
hPa
Rain since
9am
mm
Dir  Spd
km/h
Gust
km/h
Spd
kts
Gust
kts
19/11:30pm 19.4 17.8 15.9 80 2.1 E 19 24 10 13 1010.6 1008.7 0.0
19/11:00pm 19.5 18.7 16.2 81 2.0 E 15 17 8 9 1010.5 1008.6 0.0
19/10:30pm 19.4 19.0 16.1 81 2.0 E 13 17 7 9 1010.8 1008.9 0.0
19/10:00pm 19.1 18.6 16.0 82 1.9 E 13 17 7 9 1010.8 1008.9 0.0
19/09:30pm 18.9 17.7 16.0 83 1.8 E 17 24 9 13 1010.6 1008.7 0.0
19/09:00pm 19.3 17.7 16.0 81 2.0 E 19 26 10 14 1010.6 1008.7 0.0
19/08:30pm 20.0 17.8 16.0 78 2.4 ESE 22 30 12 16 1010.4 1008.5 0.0
19/08:00pm 21.0 18.1 16.0 73 3.1 ESE 26 37 14 20 1010.2 1008.3 0.0
19/07:30pm 22.6 20.1 16.2 67 3.9 ESE 24 32 13 17 1010.0 1008.1 0.0
19/07:00pm 24.4 22.0 16.4 61 5.0 E 24 32 13 17 1009.8 1007.9 0.0
19/06:30pm 25.6 22.9 16.5 57 5.7 E 26 35 14 19 1009.7 1007.8 0.0
19/06:00pm 26.3 23.6 16.5 54 6.2 ESE 26 37 14 20 1009.7 1007.8 0.0
19/05:30pm 27.1 24.7 16.4 52 6.7 ESE 24 35 13 19 1009.8 1007.9 0.0
19/05:00pm 27.2 24.0 16.2 51 6.9 ESE 28 39 15 21 1010.0 1008.1 0.0
19/04:30pm 28.3 26.4 16.6 49 7.4 ESE 22 32 12 17 1010.4 1008.5 0.0
19/04:00pm 28.5 26.2 16.7 48 7.5 ESE 24 35 13 19 1010.7 1008.8 0.0
19/03:30pm 29.0 27.6 16.9 48 7.7 E 20 32 11 17 1011.1 1009.2 0.0
19/03:00pm 27.8 25.0 16.4 50 7.2 ESE 26 37 14 20 1011.5 1009.6 0.0

Other Formats:

Comma delimited format used in spreadsheet applications
http://www.bom.gov.au/fwo/IDN60801/IDN60801.95754.axf

JavaScript Object Notation format (JSON) in row-major order
http://www.bom.gov.au/fwo/IDN60801/IDN60801.95754.json